Time;durP1;ratioP1;P1;durP2;ratioP2;P2;SDS_P1;SDS_P2;PMS_P1;PMS_P2;Temp;Humidity;BMP_temperature;BMP_pressure;BME280_temperature;BME280_humidity;BME280_pressure;Samples;Min_cycle;Max_cycle;Signal;HPM_P1;HPM_P2
2021/10/06 00:01:05;;;;;;;6.70;2.30;;;12.20;99.90;;;;;;5012357;28;20181;-71
2021/10/06 00:03:31;;;;;;;4.23;1.60;;;12.20;99.90;;;;;;5012882;28;20189;-71
2021/10/06 00:05:56;;;;;;;4.90;1.77;;;12.20;99.90;;;;;;5012563;28;20865;-71
2021/10/06 00:08:22;;;;;;;4.17;2.27;;;12.20;99.90;;;;;;5012407;28;20165;-71
2021/10/06 00:10:48;;;;;;;4.70;1.53;;;12.10;99.90;;;;;;5014054;28;20235;-71
2021/10/06 00:13:14;;;;;;;2.53;2.30;;;12.10;99.90;;;;;;5013384;28;20800;-71
2021/10/06 00:15:41;;;;;;;2.53;1.90;;;12.10;99.90;;;;;;5013463;28;20161;-71
2021/10/06 00:18:07;;;;;;;4.33;1.80;;;12.10;99.90;;;;;;5013569;28;20419;-70
2021/10/06 00:20:33;;;;;;;5.57;2.00;;;12.10;99.90;;;;;;5016168;28;20423;-70
2021/10/06 00:22:59;;;;;;;3.63;1.60;;;12.00;99.90;;;;;;5033083;28;20176;-71
2021/10/06 00:25:25;;;;;;;4.30;1.97;;;12.00;99.90;;;;;;5032848;28;20479;-71
2021/10/06 00:27:50;;;;;;;7.77;2.83;;;12.00;99.90;;;;;;5020079;28;20630;-71
2021/10/06 00:30:16;;;;;;;2.03;1.50;;;11.90;99.90;;;;;;5013379;28;20177;-70
2021/10/06 00:32:42;;;;;;;9.43;2.13;;;11.90;99.90;;;;;;5013353;28;20185;-70
2021/10/06 00:35:08;;;;;;;3.07;1.83;;;11.90;99.90;;;;;;5013210;28;20182;-71
2021/10/06 00:37:34;;;;;;;6.93;2.93;;;11.80;99.90;;;;;;5013071;28;20475;-71
2021/10/06 00:40:00;;;;;;;2.90;1.90;;;11.80;99.90;;;;;;5013143;28;20480;-71
2021/10/06 00:42:25;;;;;;;4.20;1.80;;;11.80;99.90;;;;;;5013266;28;20162;-71
2021/10/06 00:44:52;;;;;;;5.00;2.07;;;11.70;99.90;;;;;;5013891;28;20192;-70
2021/10/06 00:47:17;;;;;;;3.00;1.97;;;11.70;99.90;;;;;;5013066;28;20154;-70
2021/10/06 00:49:43;;;;;;;3.03;1.70;;;11.70;99.90;;;;;;5012792;28;20755;-70
2021/10/06 00:52:12;;;;;;;9.30;2.70;;;11.70;99.90;;;;;;5031252;28;20208;-71
2021/10/06 00:54:37;;;;;;;4.53;1.60;;;11.70;99.90;;;;;;5032683;28;20669;-71
2021/10/06 00:57:04;;;;;;;7.57;1.90;;;11.70;99.90;;;;;;5032672;28;20490;-71
2021/10/06 00:59:30;;;;;;;6.07;2.43;;;11.70;99.90;;;;;;5032731;28;20285;-70
2021/10/06 01:01:56;;;;;;;4.43;1.90;;;11.70;99.90;;;;;;5018880;28;20847;-70
2021/10/06 01:04:22;;;;;;;3.10;1.50;;;11.80;99.90;;;;;;5012909;28;20764;-71
2021/10/06 01:06:48;;;;;;;1.63;1.40;;;11.80;99.90;;;;;;5012853;28;20154;-71
2021/10/06 01:09:14;;;;;;;6.50;1.97;;;11.80;99.90;;;;;;5012960;28;20759;-71
2021/10/06 01:11:41;;;;;;;6.60;1.90;;;11.80;99.90;;;;;;5012818;28;20522;-70
2021/10/06 01:14:06;;;;;;;4.53;1.60;;;11.80;99.90;;;;;;5012576;28;20458;-70
2021/10/06 01:16:32;;;;;;;4.10;1.77;;;11.90;99.90;;;;;;5012943;28;20389;-70
2021/10/06 01:18:58;;;;;;;5.40;1.80;;;11.90;99.90;;;;;;5013370;28;20181;-71
2021/10/06 01:21:23;;;;;;;2.47;1.60;;;11.90;99.90;;;;;;5024735;28;20427;-71
2021/10/06 01:23:51;;;;;;;5.13;3.10;;;11.90;99.90;;;;;;5032520;28;20164;-71
2021/10/06 01:26:20;;;;;;;2.27;1.50;;;11.80;99.90;;;;;;5032357;28;20161;-71
2021/10/06 01:28:48;;;;;;;4.63;1.63;;;11.80;99.90;;;;;;5032417;28;20391;-71
2021/10/06 01:31:14;;;;;;;4.67;1.63;;;11.80;99.90;;;;;;5032402;28;20423;-70
2021/10/06 01:33:40;;;;;;;4.60;3.43;;;11.70;99.90;;;;;;5032261;28;20523;-70
2021/10/06 01:36:05;;;;;;;3.83;1.40;;;11.70;99.90;;;;;;5017422;28;20196;-70
2021/10/06 01:38:31;;;;;;;2.63;1.60;;;11.70;99.90;;;;;;5012336;28;20166;-70
2021/10/06 01:40:57;;;;;;;5.53;2.33;;;11.70;99.90;;;;;;5012381;28;20162;-70
2021/10/06 01:43:22;;;;;;;4.20;1.77;;;11.60;99.90;;;;;;5012487;28;20197;-70
2021/10/06 01:45:48;;;;;;;5.40;2.00;;;11.60;99.90;;;;;;5012919;28;20177;-71
2021/10/06 01:48:14;;;;;;;9.87;2.50;;;11.60;99.90;;;;;;5012666;28;20169;-71
2021/10/06 01:50:42;;;;;;;4.40;1.73;;;11.50;99.90;;;;;;5020607;28;20279;-70
2021/10/06 01:53:09;;;;;;;4.90;2.17;;;11.50;99.90;;;;;;5028747;28;20847;-70
2021/10/06 01:55:35;;;;;;;8.00;1.90;;;11.50;99.90;;;;;;5032016;28;20402;-70
2021/10/06 01:58:05;;;;;;;5.67;1.90;;;11.50;99.90;;;;;;5032052;28;20416;-70
2021/10/06 02:00:32;;;;;;;7.67;1.90;;;11.50;99.90;;;;;;5034157;28;20605;-70
2021/10/06 02:02:57;;;;;;;10.93;2.17;;;11.50;99.90;;;;;;5035579;28;20403;-70
2021/10/06 02:05:23;;;;;;;4.97;2.10;;;11.60;99.90;;;;;;5035649;28;20525;-70
2021/10/06 02:07:49;;;;;;;3.67;1.77;;;11.60;99.90;;;;;;5035582;28;20173;-71
2021/10/06 02:10:15;;;;;;;5.90;2.10;;;11.60;99.90;;;;;;5019395;28;20845;-70
2021/10/06 02:12:40;;;;;;;2.23;1.60;;;11.60;99.90;;;;;;5015557;28;20459;-70
2021/10/06 02:15:07;;;;;;;8.77;2.80;;;11.50;99.90;;;;;;5053803;28;20237;-70
2021/10/06 02:17:33;;;;;;;5.20;2.30;;;11.50;99.90;;;;;;5055357;28;20164;-70
2021/10/06 02:19:58;;;;;;;5.13;1.77;;;11.50;99.90;;;;;;5055243;28;20390;-70
2021/10/06 02:22:24;;;;;;;12.50;2.70;;;11.50;99.90;;;;;;5055080;28;20153;-71
2021/10/06 02:24:49;;;;;;;4.27;2.20;;;11.60;99.90;;;;;;5055301;28;20269;-70
2021/10/06 02:27:15;;;;;;;5.67;1.90;;;11.50;99.90;;;;;;5022165;28;20224;-70
2021/10/06 02:29:41;;;;;;;5.47;2.30;;;11.60;99.90;;;;;;5015772;28;20165;-70
2021/10/06 02:32:06;;;;;;;5.10;1.30;;;11.60;99.90;;;;;;5015383;28;20621;-70
2021/10/06 02:34:32;;;;;;;4.30;1.90;;;11.60;99.90;;;;;;5015459;28;20219;-70
2021/10/06 02:36:58;;;;;;;3.13;2.10;;;11.60;99.90;;;;;;5015120;28;20244;-70
2021/10/06 02:39:23;;;;;;;4.07;1.90;;;11.60;99.90;;;;;;5015252;28;20224;-70
2021/10/06 02:41:49;;;;;;;3.90;2.03;;;11.50;99.90;;;;;;5015112;28;20216;-70
2021/10/06 02:44:14;;;;;;;4.43;2.00;;;11.50;99.90;;;;;;5027911;28;20169;-70
2021/10/06 02:46:40;;;;;;;9.57;2.30;;;11.50;99.90;;;;;;5034782;28;20573;-70
2021/10/06 02:49:06;;;;;;;6.87;2.40;;;11.50;99.90;;;;;;5034918;28;20153;-70
2021/10/06 02:51:33;;;;;;;4.47;1.77;;;11.50;99.90;;;;;;5034602;28;20156;-70
2021/10/06 02:53:58;;;;;;;5.47;2.20;;;11.40;99.90;;;;;;5035205;28;20185;-70
2021/10/06 02:56:24;;;;;;;5.00;2.03;;;11.40;99.90;;;;;;5034645;28;20399;-70
2021/10/06 02:58:50;;;;;;;4.97;1.83;;;11.40;99.90;;;;;;5035114;28;20197;-70
2021/10/06 03:01:15;;;;;;;6.73;2.00;;;11.40;99.90;;;;;;5018392;28;20651;-70
2021/10/06 03:03:41;;;;;;;2.10;1.50;;;11.40;99.90;;;;;;5014899;28;20162;-70
2021/10/06 03:06:07;;;;;;;6.77;3.13;;;11.50;99.90;;;;;;5014535;28;20162;-70
2021/10/06 03:08:32;;;;;;;6.17;2.13;;;11.50;99.90;;;;;;5014618;28;20404;-70
2021/10/06 03:10:59;;;;;;;8.67;2.53;;;11.50;99.90;;;;;;5014568;28;20165;-70
2021/10/06 03:13:24;;;;;;;6.50;1.63;;;11.50;99.90;;;;;;5019413;28;20204;-69
2021/10/06 03:15:50;;;;;;;4.97;2.60;;;11.50;99.90;;;;;;5034720;28;20449;-70
2021/10/06 03:18:16;;;;;;;5.23;1.80;;;11.50;99.90;;;;;;5018042;28;20184;-70
2021/10/06 03:20:41;;;;;;;3.17;1.60;;;11.50;99.90;;;;;;5014445;28;20489;-70
2021/10/06 03:23:07;;;;;;;8.33;2.67;;;11.50;99.90;;;;;;5014392;28;20575;-70
2021/10/06 03:25:34;;;;;;;4.67;1.50;;;11.50;99.90;;;;;;5014273;28;20216;-70
2021/10/06 03:28:00;;;;;;;9.33;1.90;;;11.50;99.90;;;;;;5014636;28;20392;-70
2021/10/06 03:30:26;;;;;;;5.83;2.10;;;11.60;99.90;;;;;;5014595;28;20450;-70
2021/10/06 03:32:51;;;;;;;5.80;1.90;;;11.50;99.90;;;;;;5014199;28;20543;-70
2021/10/06 03:35:18;;;;;;;6.77;2.07;;;11.50;99.90;;;;;;5014671;28;21036;-69
2021/10/06 03:37:45;;;;;;;2.67;1.70;;;11.50;99.90;;;;;;5014166;28;20150;-70
2021/10/06 03:40:11;;;;;;;5.33;2.03;;;11.50;99.90;;;;;;5014324;28;20412;-70
2021/10/06 03:42:37;;;;;;;3.70;1.60;;;11.40;99.90;;;;;;5014515;28;20869;-70
2021/10/06 03:45:04;;;;;;;6.43;2.10;;;11.50;99.90;;;;;;5014614;28;20157;-70
2021/10/06 03:47:29;;;;;;;5.60;2.20;;;11.40;99.90;;;;;;5014010;28;20483;-70
2021/10/06 03:49:55;;;;;;;7.90;1.63;;;11.50;99.90;;;;;;5013826;28;20425;-70
2021/10/06 03:52:20;;;;;;;3.53;2.07;;;11.50;99.90;;;;;;5014224;28;20691;-69
2021/10/06 03:54:46;;;;;;;4.83;2.40;;;11.50;99.90;;;;;;5013962;28;20237;-70
2021/10/06 03:57:11;;;;;;;9.23;2.77;;;11.60;99.90;;;;;;5014317;28;20173;-69
2021/10/06 03:59:37;;;;;;;4.40;2.00;;;11.50;99.90;;;;;;5013712;28;20200;-70
2021/10/06 04:02:02;;;;;;;6.40;1.70;;;11.60;99.90;;;;;;5013761;28;20161;-70
2021/10/06 04:04:28;;;;;;;5.33;1.80;;;11.60;99.90;;;;;;5013885;28;20168;-70
2021/10/06 04:06:53;;;;;;;4.40;2.07;;;11.60;99.90;;;;;;5013588;28;20606;-69
2021/10/06 04:09:19;;;;;;;4.83;2.13;;;11.60;99.90;;;;;;5014074;28;20193;-69
2021/10/06 04:11:44;;;;;;;4.87;2.23;;;11.60;99.90;;;;;;5013846;28;20278;-69
2021/10/06 04:14:10;;;;;;;4.30;2.00;;;11.70;99.90;;;;;;5026526;28;20258;-69
2021/10/06 04:16:36;;;;;;;6.67;1.60;;;11.60;99.90;;;;;;5033029;28;20207;-70
2021/10/06 04:19:02;;;;;;;4.33;1.53;;;11.70;99.90;;;;;;5033208;28;20239;-70
2021/10/06 04:21:28;;;;;;;5.20;1.90;;;11.70;99.90;;;;;;5033065;28;20479;-70
2021/10/06 04:23:54;;;;;;;6.27;1.70;;;11.70;99.90;;;;;;5032918;28;20279;-70
2021/10/06 04:26:19;;;;;;;7.13;1.73;;;11.60;99.90;;;;;;5016159;28;20507;-70
2021/10/06 04:28:45;;;;;;;7.83;2.07;;;11.70;99.90;;;;;;5016725;28;20696;-70
2021/10/06 04:31:11;;;;;;;5.77;2.03;;;11.70;99.90;;;;;;5020130;28;20618;-70
2021/10/06 04:33:37;;;;;;;5.10;1.50;;;11.70;99.90;;;;;;5017886;28;20468;-70
2021/10/06 04:36:03;;;;;;;4.50;1.80;;;11.70;99.90;;;;;;5013203;28;20512;-70
2021/10/06 04:38:28;;;;;;;4.30;1.50;;;11.70;99.90;;;;;;5011884;28;20506;-70
2021/10/06 04:40:54;;;;;;;3.33;1.50;;;11.70;99.90;;;;;;5027606;28;20415;-70
2021/10/06 04:43:20;;;;;;;8.13;2.37;;;11.70;99.90;;;;;;5022930;28;20188;-70
2021/10/06 04:45:45;;;;;;;6.80;1.80;;;11.70;99.90;;;;;;5019278;28;20427;-70
2021/10/06 04:48:11;;;;;;;4.80;2.07;;;11.70;99.90;;;;;;5017986;28;20180;-70
2021/10/06 04:50:36;;;;;;;4.87;1.80;;;11.70;99.90;;;;;;5029494;28;20194;-70
2021/10/06 04:53:04;;;;;;;6.70;2.50;;;11.70;99.90;;;;;;5025182;28;20196;-70
2021/10/06 04:55:29;;;;;;;5.27;1.50;;;11.70;99.90;;;;;;5021424;28;20189;-70
2021/10/06 04:57:57;;;;;;;3.30;1.70;;;11.70;99.90;;;;;;5022295;28;20420;-70
2021/10/06 05:00:23;;;;;;;7.20;1.57;;;11.70;99.90;;;;;;5022484;28;20197;-70
2021/10/06 05:02:48;;;;;;;5.73;1.80;;;11.80;99.90;;;;;;5012647;28;21061;-70
2021/10/06 05:05:14;;;;;;;4.50;1.43;;;11.70;99.90;;;;;;5011345;28;20212;-70
2021/10/06 05:07:39;;;;;;;7.07;2.10;;;11.70;99.90;;;;;;5011393;28;20158;-70
2021/10/06 05:10:06;;;;;;;4.50;1.70;;;11.70;99.90;;;;;;5011907;28;20682;-70
2021/10/06 05:12:31;;;;;;;4.23;1.53;;;11.70;99.90;;;;;;5012835;28;20189;-70
2021/10/06 05:14:57;;;;;;;6.17;1.80;;;11.70;99.90;;;;;;5050176;28;20417;-70
2021/10/06 05:17:22;;;;;;;4.20;1.90;;;11.80;99.90;;;;;;5015447;28;20220;-71
2021/10/06 05:19:48;;;;;;;3.93;1.50;;;11.80;99.90;;;;;;5010834;28;20162;-70
2021/10/06 05:22:13;;;;;;;7.03;1.53;;;11.70;99.90;;;;;;5021662;28;20175;-70
2021/10/06 05:24:39;;;;;;;6.67;1.83;;;11.70;99.90;;;;;;5031100;28;20180;-70
2021/10/06 05:27:04;;;;;;;3.37;1.70;;;11.80;99.90;;;;;;5020435;28;20185;-70
2021/10/06 05:29:31;;;;;;;3.60;1.50;;;11.80;99.90;;;;;;5021954;28;20235;-70
2021/10/06 05:31:59;;;;;;;2.33;1.60;;;11.80;99.90;;;;;;5032273;28;20535;-70
2021/10/06 05:34:25;;;;;;;2.43;1.50;;;11.70;99.90;;;;;;5013335;28;20951;-70
2021/10/06 05:36:50;;;;;;;8.30;2.63;;;11.70;99.90;;;;;;5016160;28;20428;-70
2021/10/06 05:39:16;;;;;;;5.50;1.73;;;11.70;99.90;;;;;;5020309;28;20189;-70
2021/10/06 05:41:42;;;;;;;8.63;2.20;;;11.70;99.90;;;;;;5027418;28;20193;-70
2021/10/06 05:44:07;;;;;;;5.03;2.13;;;11.80;99.90;;;;;;5025961;28;20212;-70
2021/10/06 05:46:33;;;;;;;2.13;1.63;;;11.80;99.90;;;;;;5017906;28;20215;-70
2021/10/06 05:48:58;;;;;;;3.87;2.07;;;11.80;99.90;;;;;;5030624;28;20255;-70
2021/10/06 05:51:24;;;;;;;5.37;2.37;;;11.80;99.90;;;;;;5026105;28;20634;-70
2021/10/06 05:53:49;;;;;;;4.90;1.87;;;11.80;99.90;;;;;;5032481;28;20204;-70
2021/10/06 05:56:15;;;;;;;6.70;1.70;;;11.80;99.90;;;;;;5029764;28;20188;-70
2021/10/06 05:58:41;;;;;;;2.90;1.50;;;11.80;99.90;;;;;;5031358;28;20209;-70
2021/10/06 06:01:06;;;;;;;4.50;1.63;;;11.90;99.90;;;;;;5034513;28;20184;-70
2021/10/06 06:03:32;;;;;;;6.50;1.77;;;11.80;99.90;;;;;;5035274;28;20239;-70
2021/10/06 06:05:57;;;;;;;7.07;2.10;;;11.90;99.90;;;;;;5031666;28;20650;-70
2021/10/06 06:08:23;;;;;;;4.53;1.87;;;11.80;99.90;;;;;;5025060;28;20185;-70
2021/10/06 06:10:48;;;;;;;4.10;2.00;;;11.80;99.90;;;;;;5032659;28;20645;-69
2021/10/06 06:13:14;;;;;;;3.60;1.70;;;11.80;99.90;;;;;;5032363;28;20192;-70
2021/10/06 06:15:40;;;;;;;3.67;1.60;;;11.80;99.90;;;;;;5029478;28;20259;-70
2021/10/06 06:18:06;;;;;;;4.30;1.23;;;11.80;99.90;;;;;;5030152;28;20255;-70
2021/10/06 06:20:32;;;;;;;4.70;1.50;;;11.90;99.90;;;;;;5016771;28;20181;-70
2021/10/06 06:22:57;;;;;;;3.97;2.27;;;11.90;99.90;;;;;;5016616;28;20432;-71
2021/10/06 06:25:23;;;;;;;1.90;1.20;;;11.90;99.90;;;;;;5016386;28;20426;-70
2021/10/06 06:27:49;;;;;;;5.60;1.80;;;11.90;99.90;;;;;;5018439;28;20185;-70
2021/10/06 06:30:14;;;;;;;5.63;2.00;;;12.00;99.90;;;;;;5032803;28;20185;-70
2021/10/06 06:32:41;;;;;;;3.13;1.67;;;12.00;99.90;;;;;;5033946;28;20220;-70
2021/10/06 06:35:08;;;;;;;4.93;2.13;;;12.00;99.90;;;;;;5034247;28;20303;-70
2021/10/06 06:37:34;;;;;;;6.17;1.97;;;12.10;99.90;;;;;;5037952;28;20407;-70
2021/10/06 06:39:59;;;;;;;2.73;2.03;;;12.00;99.90;;;;;;5037424;28;20523;-70
2021/10/06 06:42:25;;;;;;;4.10;1.80;;;12.00;99.90;;;;;;5032096;28;20181;-70
2021/10/06 06:44:50;;;;;;;4.30;1.83;;;12.10;99.90;;;;;;5033527;28;20275;-70
2021/10/06 06:47:16;;;;;;;4.87;1.83;;;12.10;99.90;;;;;;5025455;28;20184;-70
2021/10/06 06:49:42;;;;;;;4.80;1.77;;;12.10;99.90;;;;;;5029732;28;20173;-70
2021/10/06 06:52:07;;;;;;;4.83;1.53;;;12.20;99.90;;;;;;5030361;28;20185;-70
2021/10/06 06:54:33;;;;;;;5.33;1.60;;;12.30;99.90;;;;;;5030254;28;20183;-70
2021/10/06 06:56:59;;;;;;;5.47;2.13;;;12.30;99.90;;;;;;5022405;28;20527;-70
2021/10/06 06:59:27;;;;;;;2.90;1.60;;;12.30;99.90;;;;;;5015125;28;20538;-70
2021/10/06 07:01:53;;;;;;;3.10;1.43;;;12.30;99.90;;;;;;5013836;28;20153;-70
2021/10/06 07:04:19;;;;;;;2.60;1.70;;;12.30;99.90;;;;;;5023193;28;20446;-70
2021/10/06 07:06:44;;;;;;;7.37;2.10;;;12.30;99.90;;;;;;5034192;28;20800;-70
2021/10/06 07:09:10;;;;;;;7.43;2.47;;;12.20;99.90;;;;;;5031608;28;20646;-70
2021/10/06 07:11:36;;;;;;;3.53;2.13;;;12.20;99.90;;;;;;5034050;28;20547;-70
2021/10/06 07:14:01;;;;;;;5.07;2.03;;;12.20;99.90;;;;;;5034071;28;20177;-70
2021/10/06 07:16:28;;;;;;;6.43;2.47;;;12.20;99.90;;;;;;5024976;28;20230;-70
2021/10/06 07:18:54;;;;;;;5.93;1.93;;;12.10;99.90;;;;;;5025327;28;20244;-70
2021/10/06 07:21:19;;;;;;;5.53;2.50;;;12.10;99.90;;;;;;5034117;28;20510;-70
2021/10/06 07:23:45;;;;;;;9.30;2.70;;;12.00;99.90;;;;;;5032224;28;20547;-70
2021/10/06 07:26:12;;;;;;;6.03;2.80;;;12.00;99.90;;;;;;5018947;28;20718;-70
2021/10/06 07:28:38;;;;;;;8.13;2.97;;;12.00;99.90;;;;;;5014354;28;20165;-70
2021/10/06 07:31:04;;;;;;;4.07;2.20;;;11.90;99.90;;;;;;5018571;28;20541;-70
2021/10/06 07:33:29;;;;;;;3.53;2.00;;;11.80;99.90;;;;;;5016475;28;20626;-70
2021/10/06 07:35:55;;;;;;;6.77;2.50;;;11.90;99.90;;;;;;5030156;28;20213;-70
2021/10/06 07:38:20;;;;;;;3.97;2.10;;;11.80;99.90;;;;;;5033218;28;20177;-70
2021/10/06 07:40:46;;;;;;;3.30;1.93;;;11.80;99.90;;;;;;5028220;28;20517;-71
2021/10/06 07:43:11;;;;;;;5.17;2.20;;;11.80;99.90;;;;;;5032624;28;20168;-70
2021/10/06 07:45:37;;;;;;;4.13;2.60;;;11.80;99.90;;;;;;5029531;28;20652;-71
2021/10/06 07:48:03;;;;;;;5.17;2.20;;;11.80;99.90;;;;;;5014698;28;20212;-70
2021/10/06 07:50:28;;;;;;;5.17;2.13;;;11.80;99.90;;;;;;5027446;28;20534;-71
2021/10/06 07:52:54;;;;;;;4.33;2.20;;;11.70;99.90;;;;;;5020366;28;20460;-71
2021/10/06 07:55:22;;;;;;;5.60;2.23;;;11.70;99.90;;;;;;5019319;28;20177;-71
2021/10/06 07:57:48;;;;;;;6.00;2.37;;;11.70;99.90;;;;;;5028439;28;20181;-70
2021/10/06 08:00:14;;;;;;;2.93;2.10;;;11.70;99.90;;;;;;5025951;28;20440;-70
2021/10/06 08:02:40;;;;;;;4.33;2.43;;;11.70;99.90;;;;;;5020845;28;20486;-70
2021/10/06 08:05:06;;;;;;;3.93;2.30;;;11.60;99.90;;;;;;5022525;28;21692;-71
2021/10/06 08:07:32;;;;;;;5.40;2.60;;;11.60;99.90;;;;;;5020336;28;20962;-70
2021/10/06 08:09:58;;;;;;;4.17;2.27;;;11.70;99.90;;;;;;5019322;28;20427;-71
2021/10/06 08:12:23;;;;;;;6.07;2.50;;;11.80;99.90;;;;;;5020276;28;20212;-70
2021/10/06 08:14:49;;;;;;;7.10;2.93;;;11.80;99.90;;;;;;5021005;28;20271;-70
2021/10/06 08:17:15;;;;;;;3.57;2.30;;;11.90;99.90;;;;;;5020359;28;20192;-71
2021/10/06 08:19:40;;;;;;;5.17;2.30;;;11.90;99.90;;;;;;5022966;28;20184;-70
2021/10/06 08:22:06;;;;;;;4.83;3.17;;;12.00;99.90;;;;;;5020115;28;20662;-71
2021/10/06 08:24:31;;;;;;;2.67;2.43;;;12.00;99.90;;;;;;5018558;28;20184;-70
2021/10/06 08:26:57;;;;;;;5.53;2.63;;;12.00;99.90;;;;;;5019096;28;20272;-70
2021/10/06 08:29:23;;;;;;;8.90;2.70;;;12.00;99.90;;;;;;5019974;28;20668;-70
2021/10/06 08:31:48;;;;;;;6.10;2.07;;;12.00;99.90;;;;;;5019196;28;20411;-70
2021/10/06 08:34:14;;;;;;;6.50;2.47;;;12.00;99.90;;;;;;5019171;28;20255;-70
2021/10/06 08:36:40;;;;;;;6.70;2.40;;;12.00;99.90;;;;;;5019350;28;20270;-70
2021/10/06 08:39:08;;;;;;;5.90;2.57;;;12.00;99.90;;;;;;5019743;28;21931;-70
2021/10/06 08:41:34;;;;;;;2.33;2.00;;;12.00;99.90;;;;;;5018401;28;20212;-71
2021/10/06 08:44:00;;;;;;;7.10;2.70;;;11.90;99.90;;;;;;5017050;28;20986;-70
2021/10/06 08:46:27;;;;;;;5.47;1.90;;;11.90;99.90;;;;;;5017461;28;20506;-70
2021/10/06 08:48:54;;;;;;;4.27;2.20;;;11.90;99.90;;;;;;5019832;28;20900;-70
2021/10/06 08:51:21;;;;;;;6.97;2.37;;;11.80;99.90;;;;;;5018432;28;20760;-70
2021/10/06 08:53:48;;;;;;;4.83;1.93;;;11.90;99.90;;;;;;5018832;28;20454;-70
2021/10/06 08:56:15;;;;;;;4.90;1.90;;;11.90;99.90;;;;;;5016184;28;20431;-70
2021/10/06 08:58:40;;;;;;;2.27;1.87;;;11.90;99.90;;;;;;5017193;28;20538;-70
2021/10/06 09:01:06;;;;;;;3.40;2.03;;;12.00;99.90;;;;;;5018802;28;20498;-70
2021/10/06 09:03:34;;;;;;;4.23;1.67;;;11.90;99.90;;;;;;5018937;28;20638;-70
2021/10/06 09:06:04;;;;;;;9.80;2.60;;;12.00;99.90;;;;;;5018391;28;20519;-70
2021/10/06 09:08:30;;;;;;;6.73;2.50;;;12.00;99.90;;;;;;5019363;28;20422;-70
2021/10/06 09:10:56;;;;;;;3.77;2.00;;;12.00;99.90;;;;;;5023310;28;20803;-70
2021/10/06 09:13:27;;;;;;;3.00;1.90;;;12.00;99.90;;;;;;5022442;28;20455;-70
2021/10/06 09:15:53;;;;;;;7.17;2.13;;;12.00;99.90;;;;;;5021789;28;20416;-71
2021/10/06 09:18:21;;;;;;;3.40;1.90;;;12.00;99.90;;;;;;5023904;28;20415;-70
2021/10/06 09:20:47;;;;;;;3.77;1.80;;;12.00;99.90;;;;;;5021755;28;20526;-70
2021/10/06 09:23:16;;;;;;;5.40;1.97;;;12.10;99.90;;;;;;5021555;28;20502;-71
2021/10/06 09:28:29;;;;;;;4.50;3.17;;;12.10;99.90;;;;;;5056724;28;20575;-69
2021/10/06 09:30:59;;;;;;;2.67;1.80;;;12.10;99.90;;;;;;5059403;28;20452;-70
2021/10/06 09:41:44;;;;;;;3.37;2.07;;;12.00;99.90;;;;;;5154190;27;20588;-69
2021/10/06 09:44:16;;;;;;;3.30;1.63;;;12.00;99.90;;;;;;5128501;27;20511;-69
2021/10/06 09:46:49;;;;;;;6.07;2.33;;;12.00;99.90;;;;;;5122796;27;20400;-69
2021/10/06 09:57:35;;;;;;;2.03;1.43;;;12.00;99.90;;;;;;5055964;28;21189;-71
2021/10/06 10:02:57;;;;;;;2.27;1.63;;;12.00;99.90;;;;;;5077530;27;23130;-71
2021/10/06 10:05:24;;;;;;;5.93;2.20;;;12.10;99.90;;;;;;5075639;28;20431;-71
2021/10/06 10:07:51;;;;;;;2.83;1.70;;;12.00;99.90;;;;;;5076248;28;20428;-71
2021/10/06 10:10:20;;;;;;;4.73;1.90;;;12.00;99.90;;;;;;5076700;28;20466;-71
2021/10/06 10:12:47;;;;;;;4.67;2.33;;;12.00;99.90;;;;;;5077207;28;20401;-71
2021/10/06 10:15:14;;;;;;;7.70;2.80;;;11.90;99.90;;;;;;5076800;28;20428;-71
2021/10/06 10:17:40;;;;;;;3.10;2.60;;;11.90;99.90;;;;;;5077042;28;20401;-71
2021/10/06 10:20:10;;;;;;;5.40;2.10;;;11.90;99.90;;;;;;5076549;28;22391;-71
2021/10/06 10:22:39;;;;;;;7.53;3.00;;;11.90;99.90;;;;;;5075130;28;20690;-71
2021/10/06 10:30:38;;;;;;;4.30;2.40;;;11.90;99.90;;;;;;5036838;28;20615;-70
2021/10/06 10:33:06;;;;;;;5.10;1.93;;;11.80;99.90;;;;;;5047617;28;20453;-70
2021/10/06 10:38:14;;;;;;;4.33;2.00;;;11.80;99.90;;;;;;5054457;28;20562;-71
2021/10/06 10:43:19;;;;;;;3.83;1.83;;;11.80;99.90;;;;;;5054832;28;20554;-71
2021/10/06 10:46:07;;;;;;;2.90;1.77;;;11.80;99.90;;;;;;5056526;28;20445;-70
2021/10/06 10:49:06;;;;;;;3.07;2.60;;;11.90;99.90;;;;;;5054045;28;20424;-70
2021/10/06 10:51:52;;;;;;;4.10;2.50;;;11.90;99.90;;;;;;5055239;28;20992;-70
2021/10/06 10:54:40;;;;;;;4.40;2.60;;;11.90;99.90;;;;;;5054750;28;21310;-70
2021/10/06 10:57:25;;;;;;;4.37;3.33;;;12.00;99.90;;;;;;5055393;28;20445;-70
2021/10/06 10:59:53;;;;;;;2.93;2.67;;;12.00;99.90;;;;;;5056735;28;21726;-70
2021/10/06 11:05:01;;;;;;;4.30;2.87;;;12.00;99.90;;;;;;5095277;27;20538;-70
2021/10/06 11:07:27;;;;;;;4.50;3.07;;;12.00;99.90;;;;;;5095146;28;20587;-70
2021/10/06 11:12:35;;;;;;;4.30;2.63;;;12.00;99.90;;;;;;5150539;27;20668;-70
2021/10/06 11:15:22;;;;;;;3.60;2.80;;;12.00;99.90;;;;;;5134202;27;20942;-70
2021/10/06 11:18:12;;;;;;;4.67;2.60;;;11.90;99.90;;;;;;5126946;27;20964;-70
2021/10/06 11:20:48;;;;;;;4.10;2.77;;;11.90;99.90;;;;;;5128777;27;20399;-70
2021/10/06 11:26:10;;;;;;;3.97;3.00;;;11.90;99.90;;;;;;5076104;28;20587;-71
2021/10/06 11:28:37;;;;;;;6.93;3.67;;;12.00;99.90;;;;;;5075452;28;20421;-69
2021/10/06 11:31:03;;;;;;;7.07;4.87;;;12.00;99.90;;;;;;5074161;28;20421;-71
2021/10/06 11:33:30;;;;;;;4.63;4.10;;;12.10;99.90;;;;;;5074281;28;20417;-71
2021/10/06 11:36:15;;;;;;;9.77;4.77;;;12.10;99.90;;;;;;5072571;28;20174;-71
2021/10/06 11:38:43;;;;;;;4.40;3.20;;;12.20;99.90;;;;;;5073276;28;20424;-71
2021/10/06 11:41:09;;;;;;;4.07;2.90;;;12.20;99.90;;;;;;5072910;28;20483;-71
2021/10/06 11:43:40;;;;;;;4.70;2.43;;;12.20;99.90;;;;;;5074221;28;20433;-71
2021/10/06 11:46:06;;;;;;;2.37;2.27;;;12.30;99.90;;;;;;5073352;28;20186;-71
2021/10/06 11:48:31;;;;;;;3.40;3.10;;;12.30;99.90;;;;;;5075447;28;20428;-71
2021/10/06 11:50:57;;;;;;;3.83;2.83;;;12.30;99.90;;;;;;5075562;28;20194;-71
2021/10/06 11:53:22;;;;;;;5.80;3.60;;;12.30;99.90;;;;;;5075343;28;20320;-71
2021/10/06 11:55:49;;;;;;;3.63;3.33;;;12.40;99.90;;;;;;5073721;28;20267;-71
2021/10/06 11:58:35;;;;;;;3.90;2.90;;;12.40;99.90;;;;;;5073647;28;20664;-71
2021/10/06 12:01:09;;;;;;;4.33;2.53;;;12.40;99.90;;;;;;5073932;28;20417;-71
2021/10/06 12:03:39;;;;;;;3.50;2.80;;;12.40;99.90;;;;;;5074637;28;20432;-71
2021/10/06 12:06:07;;;;;;;3.57;3.27;;;12.40;99.90;;;;;;5073659;28;20905;-71
2021/10/06 12:08:33;;;;;;;3.83;3.13;;;12.40;99.90;;;;;;5074086;28;20412;-71
2021/10/06 12:10:59;;;;;;;6.50;3.40;;;12.50;99.90;;;;;;5075093;28;20440;-71
2021/10/06 12:13:41;;;;;;;3.33;3.03;;;12.50;99.90;;;;;;5071452;28;20424;-71
2021/10/06 12:16:28;;;;;;;3.37;3.07;;;12.50;99.90;;;;;;5072232;28;20925;-71
2021/10/06 12:18:55;;;;;;;3.80;3.40;;;12.60;99.90;;;;;;5073026;28;20538;-71
2021/10/06 12:21:21;;;;;;;4.73;2.80;;;12.60;99.90;;;;;;5074548;28;20537;-70
2021/10/06 12:23:47;;;;;;;5.87;2.90;;;12.60;99.90;;;;;;5073831;28;20855;-71
2021/10/06 12:26:13;;;;;;;3.80;3.00;;;12.60;99.90;;;;;;5073810;28;20201;-71
2021/10/06 12:29:02;;;;;;;2.87;2.50;;;12.70;99.90;;;;;;5070450;28;20181;-71
2021/10/06 12:31:30;;;;;;;3.70;3.40;;;12.70;99.90;;;;;;5071354;28;20467;-71
2021/10/06 12:34:17;;;;;;;5.33;2.70;;;12.70;99.90;;;;;;5072517;28;20420;-71
2021/10/06 12:36:48;;;;;;;3.13;2.83;;;12.70;99.90;;;;;;5063992;28;20524;-71
2021/10/06 12:39:18;;;;;;;3.00;2.70;;;12.70;99.90;;;;;;5059497;28;20914;-71
2021/10/06 12:41:51;;;;;;;3.43;2.60;;;12.70;99.90;;;;;;5059846;28;20402;-71
2021/10/06 12:44:20;;;;;;;2.90;2.70;;;12.70;99.90;;;;;;5058543;28;20596;-71
2021/10/06 12:46:46;;;;;;;2.67;2.47;;;12.70;99.90;;;;;;5058759;28;20479;-71
2021/10/06 12:49:13;;;;;;;3.73;2.77;;;12.70;99.90;;;;;;5059434;28;20425;-71
2021/10/06 12:51:39;;;;;;;3.20;2.37;;;12.80;99.90;;;;;;5058383;28;20472;-70
2021/10/06 12:59:42;;;;;;;3.53;2.50;;;12.70;99.90;;;;;;5155101;27;22303;-71
2021/10/06 13:02:10;;;;;;;2.77;2.20;;;12.80;99.90;;;;;;5135824;27;20438;-71
2021/10/06 13:04:38;;;;;;;4.00;2.60;;;12.70;99.90;;;;;;5142178;27;20405;-70
2021/10/06 13:07:06;;;;;;;2.30;2.10;;;12.80;99.90;;;;;;5143558;27;20417;-71
2021/10/06 13:09:32;;;;;;;3.93;2.70;;;12.80;99.90;;;;;;5144390;27;20859;-71
2021/10/06 13:11:59;;;;;;;2.93;2.23;;;12.80;99.90;;;;;;5142451;27;20763;-71
2021/10/06 13:14:25;;;;;;;2.80;2.20;;;12.80;99.90;;;;;;5146597;27;20458;-71
2021/10/06 13:16:51;;;;;;;3.50;3.03;;;12.80;99.90;;;;;;5136649;27;20410;-71
2021/10/06 13:19:17;;;;;;;3.70;2.63;;;12.80;99.90;;;;;;5147203;27;20988;-71
2021/10/06 13:21:47;;;;;;;3.90;2.90;;;12.80;99.90;;;;;;5146276;27;20390;-70
2021/10/06 13:24:12;;;;;;;2.60;2.40;;;12.80;99.90;;;;;;5142779;27;21070;-71
2021/10/06 13:26:39;;;;;;;3.80;2.70;;;12.80;99.90;;;;;;5141003;27;20489;-71
2021/10/06 13:29:04;;;;;;;5.77;2.80;;;12.80;99.90;;;;;;5146955;27;20474;-71
2021/10/06 13:31:31;;;;;;;3.20;2.80;;;12.70;99.90;;;;;;5148675;27;20444;-71
2021/10/06 13:33:57;;;;;;;3.50;3.03;;;12.70;99.90;;;;;;5148760;27;20441;-70